sensor_id;sensor_type;location;lat;lon;timestamp;temperature;humidity
17423;DHT22;8829;47.932;7.810;2023-01-28T00:00:20;-0.70;99.90
17423;DHT22;8829;47.932;7.810;2023-01-28T00:02:46;-0.70;99.90
17423;DHT22;8829;47.932;7.810;2023-01-28T00:05:15;-0.70;99.90
17423;DHT22;8829;47.932;7.810;2023-01-28T00:07:42;-0.70;99.90
17423;DHT22;8829;47.932;7.810;2023-01-28T00:10:09;-0.70;99.90
17423;DHT22;8829;47.932;7.810;2023-01-28T00:12:36;-0.60;99.90
17423;DHT22;8829;47.932;7.810;2023-01-28T00:15:03;-0.50;99.90
17423;DHT22;8829;47.932;7.810;2023-01-28T00:17:30;-0.50;99.90
17423;DHT22;8829;47.932;7.810;2023-01-28T00:19:57;-0.60;99.90
17423;DHT22;8829;47.932;7.810;2023-01-28T00:22:25;-0.50;99.90
17423;DHT22;8829;47.932;7.810;2023-01-28T00:24:52;-0.50;99.90
17423;DHT22;8829;47.932;7.810;2023-01-28T00:27:18;-0.60;99.90
17423;DHT22;8829;47.932;7.810;2023-01-28T00:29:45;-0.60;99.90
17423;DHT22;8829;47.932;7.810;2023-01-28T00:32:12;-0.60;99.90
17423;DHT22;8829;47.932;7.810;2023-01-28T00:34:39;-0.60;99.90
17423;DHT22;8829;47.932;7.810;2023-01-28T00:37:06;-0.60;99.90
17423;DHT22;8829;47.932;7.810;2023-01-28T00:39:34;-0.60;99.90
17423;DHT22;8829;47.932;7.810;2023-01-28T00:42:00;-0.70;99.90
17423;DHT22;8829;47.932;7.810;2023-01-28T00:44:27;-0.70;99.90
17423;DHT22;8829;47.932;7.810;2023-01-28T00:46:54;-0.70;99.90
17423;DHT22;8829;47.932;7.810;2023-01-28T00:49:21;-0.70;99.90
17423;DHT22;8829;47.932;7.810;2023-01-28T00:51:47;-0.70;99.90
17423;DHT22;8829;47.932;7.810;2023-01-28T00:54:14;-0.60;99.90
17423;DHT22;8829;47.932;7.810;2023-01-28T00:56:42;-0.70;99.90
17423;DHT22;8829;47.932;7.810;2023-01-28T00:59:09;-0.60;99.90
17423;DHT22;8829;47.932;7.810;2023-01-28T01:01:36;-0.60;99.90
17423;DHT22;8829;47.932;7.810;2023-01-28T01:04:03;-0.50;99.90
17423;DHT22;8829;47.932;7.810;2023-01-28T01:06:31;-0.50;99.90
17423;DHT22;8829;47.932;7.810;2023-01-28T01:08:58;-0.50;99.90
17423;DHT22;8829;47.932;7.810;2023-01-28T01:11:25;-0.60;99.90
17423;DHT22;8829;47.932;7.810;2023-01-28T01:13:55;-0.50;99.90
17423;DHT22;8829;47.932;7.810;2023-01-28T01:16:23;-0.50;99.90
17423;DHT22;8829;47.932;7.810;2023-01-28T01:18:51;-0.60;99.90
17423;DHT22;8829;47.932;7.810;2023-01-28T01:21:19;-0.70;99.90
17423;DHT22;8829;47.932;7.810;2023-01-28T01:23:47;-0.60;99.90
17423;DHT22;8829;47.932;7.810;2023-01-28T01:26:14;-0.70;99.90
17423;DHT22;8829;47.932;7.810;2023-01-28T01:28:41;-0.60;99.90
17423;DHT22;8829;47.932;7.810;2023-01-28T01:31:11;-0.60;99.90
17423;DHT22;8829;47.932;7.810;2023-01-28T01:33:38;-0.60;99.90
17423;DHT22;8829;47.932;7.810;2023-01-28T01:36:06;-0.60;99.90
17423;DHT22;8829;47.932;7.810;2023-01-28T01:38:32;-0.60;99.90
17423;DHT22;8829;47.932;7.810;2023-01-28T01:41:00;-0.70;99.90
17423;DHT22;8829;47.932;7.810;2023-01-28T01:43:45;-0.70;99.90
17423;DHT22;8829;47.932;7.810;2023-01-28T01:46:15;-0.70;99.90
17423;DHT22;8829;47.932;7.810;2023-01-28T01:48:42;-0.80;99.90
17423;DHT22;8829;47.932;7.810;2023-01-28T01:51:11;-0.70;99.90
17423;DHT22;8829;47.932;7.810;2023-01-28T01:53:42;-0.60;99.90
17423;DHT22;8829;47.932;7.810;2023-01-28T01:56:13;-0.60;99.90
17423;DHT22;8829;47.932;7.810;2023-01-28T01:58:43;-0.50;99.90
17423;DHT22;8829;47.932;7.810;2023-01-28T02:01:13;-0.50;99.90
17423;DHT22;8829;47.932;7.810;2023-01-28T02:03:46;-0.50;99.90
17423;DHT22;8829;47.932;7.810;2023-01-28T02:06:16;-0.50;99.90
17423;DHT22;8829;47.932;7.810;2023-01-28T02:08:43;-0.50;99.90
17423;DHT22;8829;47.932;7.810;2023-01-28T02:11:11;-0.50;99.90
17423;DHT22;8829;47.932;7.810;2023-01-28T02:13:42;-0.50;99.90
17423;DHT22;8829;47.932;7.810;2023-01-28T02:16:10;-0.50;99.90
17423;DHT22;8829;47.932;7.810;2023-01-28T02:18:39;-0.50;99.90
17423;DHT22;8829;47.932;7.810;2023-01-28T02:24:15;-0.40;99.90
17423;DHT22;8829;47.932;7.810;2023-01-28T02:26:55;-0.50;99.90
17423;DHT22;8829;47.932;7.810;2023-01-28T02:29:27;-0.50;99.90
17423;DHT22;8829;47.932;7.810;2023-01-28T02:32:02;-0.50;99.90
17423;DHT22;8829;47.932;7.810;2023-01-28T02:34:37;-0.50;99.90
17423;DHT22;8829;47.932;7.810;2023-01-28T02:37:11;-0.50;99.90
17423;DHT22;8829;47.932;7.810;2023-01-28T02:39:41;-0.40;99.90
17423;DHT22;8829;47.932;7.810;2023-01-28T02:42:11;-0.40;99.90
17423;DHT22;8829;47.932;7.810;2023-01-28T02:44:42;-0.50;99.90
17423;DHT22;8829;47.932;7.810;2023-01-28T02:47:09;-0.50;99.90
17423;DHT22;8829;47.932;7.810;2023-01-28T02:49:55;-0.40;99.90
17423;DHT22;8829;47.932;7.810;2023-01-28T02:52:44;-0.40;99.90
17423;DHT22;8829;47.932;7.810;2023-01-28T02:55:46;-0.40;99.90
17423;DHT22;8829;47.932;7.810;2023-01-28T02:58:21;-0.30;99.90
17423;DHT22;8829;47.932;7.810;2023-01-28T03:00:55;-0.30;99.90
17423;DHT22;8829;47.932;7.810;2023-01-28T03:03:32;-0.30;99.90
17423;DHT22;8829;47.932;7.810;2023-01-28T03:06:04;-0.30;99.90
17423;DHT22;8829;47.932;7.810;2023-01-28T03:08:35;-0.30;99.90
17423;DHT22;8829;47.932;7.810;2023-01-28T03:11:20;-0.30;99.90
17423;DHT22;8829;47.932;7.810;2023-01-28T03:14:05;-0.30;99.90
17423;DHT22;8829;47.932;7.810;2023-01-28T03:16:52;-0.30;99.90
17423;DHT22;8829;47.932;7.810;2023-01-28T03:19:40;-0.40;99.90
17423;DHT22;8829;47.932;7.810;2023-01-28T03:22:27;-0.40;99.90
17423;DHT22;8829;47.932;7.810;2023-01-28T03:25:13;-0.30;99.90
17423;DHT22;8829;47.932;7.810;2023-01-28T03:28:01;-0.30;99.90
17423;DHT22;8829;47.932;7.810;2023-01-28T03:30:50;-0.20;99.90
17423;DHT22;8829;47.932;7.810;2023-01-28T03:33:39;-0.20;99.90
17423;DHT22;8829;47.932;7.810;2023-01-28T03:36:25;-0.20;99.90
17423;DHT22;8829;47.932;7.810;2023-01-28T03:39:09;-0.30;99.90
17423;DHT22;8829;47.932;7.810;2023-01-28T03:41:36;-0.20;99.90
17423;DHT22;8829;47.932;7.810;2023-01-28T03:44:03;-0.20;99.90
17423;DHT22;8829;47.932;7.810;2023-01-28T03:46:47;-0.10;99.90
17423;DHT22;8829;47.932;7.810;2023-01-28T03:49:15;-0.10;99.90
17423;DHT22;8829;47.932;7.810;2023-01-28T03:51:42;-0.20;99.90
17423;DHT22;8829;47.932;7.810;2023-01-28T03:54:10;-0.20;99.90
17423;DHT22;8829;47.932;7.810;2023-01-28T03:56:37;-0.20;99.90
17423;DHT22;8829;47.932;7.810;2023-01-28T03:59:04;-0.20;99.90
17423;DHT22;8829;47.932;7.810;2023-01-28T04:01:31;-0.20;99.90
17423;DHT22;8829;47.932;7.810;2023-01-28T04:03:58;-0.10;99.90
17423;DHT22;8829;47.932;7.810;2023-01-28T04:06:26;-0.20;99.90
17423;DHT22;8829;47.932;7.810;2023-01-28T04:08:53;-0.20;99.90
17423;DHT22;8829;47.932;7.810;2023-01-28T04:11:23;-0.20;99.90
17423;DHT22;8829;47.932;7.810;2023-01-28T04:13:51;-0.10;99.90
17423;DHT22;8829;47.932;7.810;2023-01-28T04:16:18;0.00;99.90
17423;DHT22;8829;47.932;7.810;2023-01-28T04:18:46;0.00;99.90
17423;DHT22;8829;47.932;7.810;2023-01-28T04:21:12;-0.20;99.90
17423;DHT22;8829;47.932;7.810;2023-01-28T04:23:41;-0.20;99.90
17423;DHT22;8829;47.932;7.810;2023-01-28T04:26:07;-0.10;99.90
17423;DHT22;8829;47.932;7.810;2023-01-28T04:28:34;-0.10;99.90
17423;DHT22;8829;47.932;7.810;2023-01-28T04:31:01;-0.20;99.90
17423;DHT22;8829;47.932;7.810;2023-01-28T04:33:27;-0.30;99.90
17423;DHT22;8829;47.932;7.810;2023-01-28T04:35:54;-0.30;99.90
17423;DHT22;8829;47.932;7.810;2023-01-28T04:38:21;-0.30;99.90
17423;DHT22;8829;47.932;7.810;2023-01-28T04:40:52;-0.40;99.90
17423;DHT22;8829;47.932;7.810;2023-01-28T04:43:19;-0.40;99.90
17423;DHT22;8829;47.932;7.810;2023-01-28T04:45:46;-0.30;99.90
17423;DHT22;8829;47.932;7.810;2023-01-28T04:48:13;-0.30;99.90
17423;DHT22;8829;47.932;7.810;2023-01-28T04:50:41;-0.40;99.90
17423;DHT22;8829;47.932;7.810;2023-01-28T04:53:08;-0.40;99.90
17423;DHT22;8829;47.932;7.810;2023-01-28T04:55:35;-0.40;99.90
17423;DHT22;8829;47.932;7.810;2023-01-28T04:58:03;-0.40;99.90
17423;DHT22;8829;47.932;7.810;2023-01-28T05:00:30;-0.30;99.90
17423;DHT22;8829;47.932;7.810;2023-01-28T05:02:57;-0.20;99.90
17423;DHT22;8829;47.932;7.810;2023-01-28T05:05:24;-0.20;99.90
17423;DHT22;8829;47.932;7.810;2023-01-28T05:07:51;-0.30;99.90
17423;DHT22;8829;47.932;7.810;2023-01-28T05:10:18;-0.30;99.90
17423;DHT22;8829;47.932;7.810;2023-01-28T05:12:46;-0.20;99.90
17423;DHT22;8829;47.932;7.810;2023-01-28T05:15:14;-0.20;99.90
17423;DHT22;8829;47.932;7.810;2023-01-28T05:17:42;-0.30;99.90
17423;DHT22;8829;47.932;7.810;2023-01-28T05:20:10;-0.30;99.90
17423;DHT22;8829;47.932;7.810;2023-01-28T05:22:37;-0.40;99.90
17423;DHT22;8829;47.932;7.810;2023-01-28T05:25:05;-0.40;99.90
17423;DHT22;8829;47.932;7.810;2023-01-28T05:27:32;-0.40;99.90
17423;DHT22;8829;47.932;7.810;2023-01-28T05:29:59;-0.40;99.90
17423;DHT22;8829;47.932;7.810;2023-01-28T05:32:27;-0.30;99.90
17423;DHT22;8829;47.932;7.810;2023-01-28T05:34:54;-0.20;99.90
17423;DHT22;8829;47.932;7.810;2023-01-28T05:37:20;-0.10;99.90
17423;DHT22;8829;47.932;7.810;2023-01-28T05:39:47;-0.20;99.90
17423;DHT22;8829;47.932;7.810;2023-01-28T05:42:13;0.00;99.90
17423;DHT22;8829;47.932;7.810;2023-01-28T05:44:42;0.00;99.90
17423;DHT22;8829;47.932;7.810;2023-01-28T05:47:08;-0.10;99.90
17423;DHT22;8829;47.932;7.810;2023-01-28T05:49:36;0.00;99.90
17423;DHT22;8829;47.932;7.810;2023-01-28T05:52:03;-0.10;99.90
17423;DHT22;8829;47.932;7.810;2023-01-28T05:54:30;-0.10;99.90
17423;DHT22;8829;47.932;7.810;2023-01-28T05:56:56;-0.20;99.90
17423;DHT22;8829;47.932;7.810;2023-01-28T05:59:23;-0.20;99.90
17423;DHT22;8829;47.932;7.810;2023-01-28T06:01:50;-0.10;99.90
17423;DHT22;8829;47.932;7.810;2023-01-28T06:04:16;-0.10;99.90
17423;DHT22;8829;47.932;7.810;2023-01-28T06:06:46;-0.20;99.90
17423;DHT22;8829;47.932;7.810;2023-01-28T06:09:13;-0.20;99.90
17423;DHT22;8829;47.932;7.810;2023-01-28T06:11:39;-0.10;99.90
17423;DHT22;8829;47.932;7.810;2023-01-28T06:14:06;-0.10;99.90
17423;DHT22;8829;47.932;7.810;2023-01-28T06:16:33;-0.10;99.90
17423;DHT22;8829;47.932;7.810;2023-01-28T06:19:00;-0.20;99.90
17423;DHT22;8829;47.932;7.810;2023-01-28T06:21:27;-0.20;99.90
17423;DHT22;8829;47.932;7.810;2023-01-28T06:23:55;-0.10;99.90
17423;DHT22;8829;47.932;7.810;2023-01-28T06:26:21;-0.10;99.90
17423;DHT22;8829;47.932;7.810;2023-01-28T06:28:48;0.00;99.90
17423;DHT22;8829;47.932;7.810;2023-01-28T06:31:15;-0.10;99.90
17423;DHT22;8829;47.932;7.810;2023-01-28T06:33:42;-0.10;99.90
17423;DHT22;8829;47.932;7.810;2023-01-28T06:36:09;-0.20;99.90
17423;DHT22;8829;47.932;7.810;2023-01-28T06:38:35;-0.10;99.90
17423;DHT22;8829;47.932;7.810;2023-01-28T06:41:04;-0.20;99.90
17423;DHT22;8829;47.932;7.810;2023-01-28T06:43:30;-0.20;99.90
17423;DHT22;8829;47.932;7.810;2023-01-28T06:45:57;-0.20;99.90
17423;DHT22;8829;47.932;7.810;2023-01-28T06:48:24;-0.20;99.90
17423;DHT22;8829;47.932;7.810;2023-01-28T06:50:51;-0.20;99.90
17423;DHT22;8829;47.932;7.810;2023-01-28T06:53:19;-0.20;99.90
17423;DHT22;8829;47.932;7.810;2023-01-28T06:55:46;-0.10;99.90
17423;DHT22;8829;47.932;7.810;2023-01-28T06:58:14;-0.10;99.90
17423;DHT22;8829;47.932;7.810;2023-01-28T07:00:41;-0.10;99.90
17423;DHT22;8829;47.932;7.810;2023-01-28T07:03:07;0.00;99.90
17423;DHT22;8829;47.932;7.810;2023-01-28T07:05:34;0.00;99.90
17423;DHT22;8829;47.932;7.810;2023-01-28T07:08:01;0.00;99.90
17423;DHT22;8829;47.932;7.810;2023-01-28T07:10:27;0.00;99.90
17423;DHT22;8829;47.932;7.810;2023-01-28T07:12:54;0.00;99.90
17423;DHT22;8829;47.932;7.810;2023-01-28T07:15:22;-0.10;99.90
17423;DHT22;8829;47.932;7.810;2023-01-28T07:17:49;-0.10;99.90
17423;DHT22;8829;47.932;7.810;2023-01-28T07:20:16;0.00;99.90
17423;DHT22;8829;47.932;7.810;2023-01-28T07:22:43;0.00;99.90
17423;DHT22;8829;47.932;7.810;2023-01-28T07:25:12;0.10;99.90
17423;DHT22;8829;47.932;7.810;2023-01-28T07:27:44;0.20;99.90
17423;DHT22;8829;47.932;7.810;2023-01-28T07:30:11;0.30;99.90
17423;DHT22;8829;47.932;7.810;2023-01-28T07:32:39;0.30;99.90
17423;DHT22;8829;47.932;7.810;2023-01-28T07:35:07;0.30;99.90
17423;DHT22;8829;47.932;7.810;2023-01-28T07:37:34;0.30;99.90
17423;DHT22;8829;47.932;7.810;2023-01-28T07:40:00;0.30;99.90
17423;DHT22;8829;47.932;7.810;2023-01-28T07:42:27;0.40;99.90
17423;DHT22;8829;47.932;7.810;2023-01-28T07:44:54;0.40;99.90
17423;DHT22;8829;47.932;7.810;2023-01-28T07:47:20;0.40;99.90
17423;DHT22;8829;47.932;7.810;2023-01-28T07:49:48;0.40;99.90
17423;DHT22;8829;47.932;7.810;2023-01-28T07:52:15;0.40;99.90
17423;DHT22;8829;47.932;7.810;2023-01-28T07:54:41;0.40;99.90
17423;DHT22;8829;47.932;7.810;2023-01-28T07:57:08;0.40;99.90
17423;DHT22;8829;47.932;7.810;2023-01-28T07:59:35;0.50;99.90
17423;DHT22;8829;47.932;7.810;2023-01-28T08:02:02;0.50;99.90
17423;DHT22;8829;47.932;7.810;2023-01-28T08:04:28;0.50;99.90
17423;DHT22;8829;47.932;7.810;2023-01-28T08:06:57;0.40;99.90
17423;DHT22;8829;47.932;7.810;2023-01-28T08:09:24;0.40;99.90
17423;DHT22;8829;47.932;7.810;2023-01-28T08:11:51;0.40;99.90
17423;DHT22;8829;47.932;7.810;2023-01-28T08:14:18;0.40;99.90
17423;DHT22;8829;47.932;7.810;2023-01-28T08:16:45;0.40;99.90
17423;DHT22;8829;47.932;7.810;2023-01-28T08:19:12;0.40;99.90
17423;DHT22;8829;47.932;7.810;2023-01-28T08:21:39;0.40;99.90
17423;DHT22;8829;47.932;7.810;2023-01-28T08:24:07;0.40;99.90
17423;DHT22;8829;47.932;7.810;2023-01-28T08:26:34;0.40;99.90
17423;DHT22;8829;47.932;7.810;2023-01-28T08:29:00;0.40;99.90
17423;DHT22;8829;47.932;7.810;2023-01-28T08:31:27;0.50;99.90
17423;DHT22;8829;47.932;7.810;2023-01-28T08:33:54;0.50;99.90
17423;DHT22;8829;47.932;7.810;2023-01-28T08:36:21;0.50;99.90
17423;DHT22;8829;47.932;7.810;2023-01-28T08:38:51;0.50;99.90
17423;DHT22;8829;47.932;7.810;2023-01-28T08:41:20;0.50;99.90
17423;DHT22;8829;47.932;7.810;2023-01-28T08:43:47;0.50;99.90
17423;DHT22;8829;47.932;7.810;2023-01-28T08:46:14;0.60;99.90
17423;DHT22;8829;47.932;7.810;2023-01-28T08:48:41;0.60;99.90
17423;DHT22;8829;47.932;7.810;2023-01-28T08:51:08;0.70;99.90
17423;DHT22;8829;47.932;7.810;2023-01-28T08:53:34;0.70;99.90
17423;DHT22;8829;47.932;7.810;2023-01-28T08:56:01;0.70;99.90
17423;DHT22;8829;47.932;7.810;2023-01-28T08:58:29;0.70;99.90
17423;DHT22;8829;47.932;7.810;2023-01-28T09:00:56;0.70;99.90
17423;DHT22;8829;47.932;7.810;2023-01-28T09:03:23;0.70;99.90
17423;DHT22;8829;47.932;7.810;2023-01-28T09:05:50;0.70;99.90
17423;DHT22;8829;47.932;7.810;2023-01-28T09:08:16;0.80;99.90
17423;DHT22;8829;47.932;7.810;2023-01-28T09:10:43;0.80;99.90
17423;DHT22;8829;47.932;7.810;2023-01-28T09:13:11;0.90;99.90
17423;DHT22;8829;47.932;7.810;2023-01-28T09:15:40;0.80;99.90
17423;DHT22;8829;47.932;7.810;2023-01-28T09:18:07;0.90;99.90
17423;DHT22;8829;47.932;7.810;2023-01-28T09:20:34;0.90;99.90
17423;DHT22;8829;47.932;7.810;2023-01-28T09:23:02;0.90;99.90
17423;DHT22;8829;47.932;7.810;2023-01-28T09:25:28;1.00;99.90
17423;DHT22;8829;47.932;7.810;2023-01-28T09:27:56;1.00;99.90
17423;DHT22;8829;47.932;7.810;2023-01-28T09:30:23;1.10;99.90
17423;DHT22;8829;47.932;7.810;2023-01-28T09:32:51;1.00;99.90
17423;DHT22;8829;47.932;7.810;2023-01-28T09:35:19;1.10;99.90
17423;DHT22;8829;47.932;7.810;2023-01-28T09:37:46;1.00;99.90
17423;DHT22;8829;47.932;7.810;2023-01-28T09:40:16;1.00;99.90
17423;DHT22;8829;47.932;7.810;2023-01-28T09:42:53;1.00;99.90
17423;DHT22;8829;47.932;7.810;2023-01-28T09:45:28;1.00;99.90
17423;DHT22;8829;47.932;7.810;2023-01-28T09:48:01;1.00;99.90
17423;DHT22;8829;47.932;7.810;2023-01-28T09:50:32;1.00;99.90
17423;DHT22;8829;47.932;7.810;2023-01-28T09:53:03;1.10;99.90
17423;DHT22;8829;47.932;7.810;2023-01-28T09:55:34;1.10;99.90
17423;DHT22;8829;47.932;7.810;2023-01-28T09:58:04;1.10;99.90
17423;DHT22;8829;47.932;7.810;2023-01-28T10:00:36;1.10;99.90
17423;DHT22;8829;47.932;7.810;2023-01-28T10:03:20;1.10;99.90
17423;DHT22;8829;47.932;7.810;2023-01-28T10:05:56;1.20;99.90
17423;DHT22;8829;47.932;7.810;2023-01-28T10:08:36;1.10;99.90
17423;DHT22;8829;47.932;7.810;2023-01-28T10:11:18;1.10;99.90
17423;DHT22;8829;47.932;7.810;2023-01-28T10:13:53;1.00;99.90
17423;DHT22;8829;47.932;7.810;2023-01-28T10:16:29;1.00;99.90
17423;DHT22;8829;47.932;7.810;2023-01-28T10:19:01;1.00;99.90
17423;DHT22;8829;47.932;7.810;2023-01-28T10:21:33;1.00;99.90
17423;DHT22;8829;47.932;7.810;2023-01-28T10:24:05;1.00;99.90
17423;DHT22;8829;47.932;7.810;2023-01-28T10:26:37;1.10;99.90
17423;DHT22;8829;47.932;7.810;2023-01-28T10:29:11;1.00;99.90
17423;DHT22;8829;47.932;7.810;2023-01-28T10:31:42;1.10;99.90
17423;DHT22;8829;47.932;7.810;2023-01-28T10:34:11;1.10;99.90
17423;DHT22;8829;47.932;7.810;2023-01-28T10:36:38;1.10;99.90
17423;DHT22;8829;47.932;7.810;2023-01-28T10:39:04;1.10;99.90
17423;DHT22;8829;47.932;7.810;2023-01-28T10:41:33;1.10;99.90
17423;DHT22;8829;47.932;7.810;2023-01-28T10:44:00;1.10;99.90
17423;DHT22;8829;47.932;7.810;2023-01-28T10:46:29;1.20;99.90
17423;DHT22;8829;47.932;7.810;2023-01-28T10:49:02;1.20;99.90
17423;DHT22;8829;47.932;7.810;2023-01-28T10:51:34;1.30;99.90
17423;DHT22;8829;47.932;7.810;2023-01-28T10:54:01;1.30;99.90
17423;DHT22;8829;47.932;7.810;2023-01-28T10:56:30;1.30;99.90
17423;DHT22;8829;47.932;7.810;2023-01-28T10:58:59;1.30;99.90
17423;DHT22;8829;47.932;7.810;2023-01-28T11:01:41;1.20;99.90
17423;DHT22;8829;47.932;7.810;2023-01-28T11:04:16;1.20;99.90
17423;DHT22;8829;47.932;7.810;2023-01-28T11:06:51;1.20;99.90
17423;DHT22;8829;47.932;7.810;2023-01-28T11:09:23;1.20;99.90
17423;DHT22;8829;47.932;7.810;2023-01-28T11:11:50;1.30;99.90
17423;DHT22;8829;47.932;7.810;2023-01-28T11:14:22;1.30;99.90
17423;DHT22;8829;47.932;7.810;2023-01-28T11:16:50;1.30;99.90
17423;DHT22;8829;47.932;7.810;2023-01-28T11:19:20;1.40;99.90
17423;DHT22;8829;47.932;7.810;2023-01-28T11:21:51;1.50;99.90
17423;DHT22;8829;47.932;7.810;2023-01-28T11:24:22;1.50;99.90
17423;DHT22;8829;47.932;7.810;2023-01-28T11:26:51;1.60;99.90
17423;DHT22;8829;47.932;7.810;2023-01-28T11:29:22;1.50;99.90
17423;DHT22;8829;47.932;7.810;2023-01-28T11:31:50;1.50;99.90
17423;DHT22;8829;47.932;7.810;2023-01-28T11:34:19;1.50;99.90
17423;DHT22;8829;47.932;7.810;2023-01-28T11:36:51;1.40;99.90
17423;DHT22;8829;47.932;7.810;2023-01-28T11:39:21;1.50;99.90
17423;DHT22;8829;47.932;7.810;2023-01-28T11:41:50;1.60;99.90
17423;DHT22;8829;47.932;7.810;2023-01-28T11:44:20;1.70;99.90
17423;DHT22;8829;47.932;7.810;2023-01-28T11:47:06;1.80;99.90
17423;DHT22;8829;47.932;7.810;2023-01-28T11:49:45;1.90;99.90
17423;DHT22;8829;47.932;7.810;2023-01-28T11:52:25;1.90;99.90
17423;DHT22;8829;47.932;7.810;2023-01-28T11:54:58;2.10;99.90
17423;DHT22;8829;47.932;7.810;2023-01-28T11:57:34;2.10;99.90
17423;DHT22;8829;47.932;7.810;2023-01-28T12:00:19;2.10;99.90
17423;DHT22;8829;47.932;7.810;2023-01-28T12:02:52;2.20;99.90
17423;DHT22;8829;47.932;7.810;2023-01-28T12:05:33;2.20;99.90
17423;DHT22;8829;47.932;7.810;2023-01-28T12:08:13;2.30;99.90
17423;DHT22;8829;47.932;7.810;2023-01-28T12:10:49;2.30;99.90
17423;DHT22;8829;47.932;7.810;2023-01-28T12:13:28;2.30;99.90
17423;DHT22;8829;47.932;7.810;2023-01-28T12:16:27;2.40;99.90
17423;DHT22;8829;47.932;7.810;2023-01-28T12:19:36;2.40;99.90
17423;DHT22;8829;47.932;7.810;2023-01-28T12:25:20;2.50;99.90
17423;DHT22;8829;47.932;7.810;2023-01-28T12:27:54;2.60;99.90
17423;DHT22;8829;47.932;7.810;2023-01-28T12:30:34;2.60;99.90
17423;DHT22;8829;47.932;7.810;2023-01-28T12:33:13;2.60;99.90
17423;DHT22;8829;47.932;7.810;2023-01-28T12:35:52;2.60;99.90
17423;DHT22;8829;47.932;7.810;2023-01-28T12:38:27;2.50;99.90
17423;DHT22;8829;47.932;7.810;2023-01-28T12:41:06;2.50;99.90
17423;DHT22;8829;47.932;7.810;2023-01-28T12:43:41;2.60;99.90
17423;DHT22;8829;47.932;7.810;2023-01-28T12:46:16;2.70;99.90
17423;DHT22;8829;47.932;7.810;2023-01-28T12:48:46;2.70;99.90
17423;DHT22;8829;47.932;7.810;2023-01-28T12:51:18;2.70;99.90
17423;DHT22;8829;47.932;7.810;2023-01-28T12:53:49;2.70;99.90
17423;DHT22;8829;47.932;7.810;2023-01-28T12:56:20;2.60;99.90
17423;DHT22;8829;47.932;7.810;2023-01-28T12:58:53;2.60;99.90
17423;DHT22;8829;47.932;7.810;2023-01-28T13:01:24;2.60;99.90
17423;DHT22;8829;47.932;7.810;2023-01-28T13:03:57;2.60;99.90
17423;DHT22;8829;47.932;7.810;2023-01-28T13:06:30;2.60;99.90
17423;DHT22;8829;47.932;7.810;2023-01-28T13:09:01;2.50;99.90
17423;DHT22;8829;47.932;7.810;2023-01-28T13:11:34;2.50;99.90
17423;DHT22;8829;47.932;7.810;2023-01-28T13:14:02;2.50;99.90
17423;DHT22;8829;47.932;7.810;2023-01-28T13:16:29;2.40;99.90
17423;DHT22;8829;47.932;7.810;2023-01-28T13:19:05;2.40;99.90
17423;DHT22;8829;47.932;7.810;2023-01-28T13:21:34;2.40;99.90
17423;DHT22;8829;47.932;7.810;2023-01-28T13:24:17;2.40;99.90
17423;DHT22;8829;47.932;7.810;2023-01-28T13:26:48;2.30;99.90
17423;DHT22;8829;47.932;7.810;2023-01-28T13:29:29;2.30;99.90
17423;DHT22;8829;47.932;7.810;2023-01-28T13:31:58;2.30;99.90
17423;DHT22;8829;47.932;7.810;2023-01-28T13:34:31;2.30;99.90
17423;DHT22;8829;47.932;7.810;2023-01-28T13:37:06;2.20;99.90
17423;DHT22;8829;47.932;7.810;2023-01-28T13:39:46;2.20;99.90
17423;DHT22;8829;47.932;7.810;2023-01-28T13:42:30;2.30;99.90
17423;DHT22;8829;47.932;7.810;2023-01-28T13:45:18;2.20;99.90
17423;DHT22;8829;47.932;7.810;2023-01-28T13:47:47;2.20;99.90
17423;DHT22;8829;47.932;7.810;2023-01-28T13:50:19;2.20;99.90
17423;DHT22;8829;47.932;7.810;2023-01-28T13:52:50;2.20;99.90
17423;DHT22;8829;47.932;7.810;2023-01-28T13:55:21;2.10;99.90
17423;DHT22;8829;47.932;7.810;2023-01-28T13:58:23;2.10;99.90
17423;DHT22;8829;47.932;7.810;2023-01-28T14:07:39;2.00;99.90
17423;DHT22;8829;47.932;7.810;2023-01-28T14:10:29;2.00;99.90
17423;DHT22;8829;47.932;7.810;2023-01-28T14:13:17;2.00;99.90
17423;DHT22;8829;47.932;7.810;2023-01-28T14:18:43;2.00;99.90
17423;DHT22;8829;47.932;7.810;2023-01-28T14:21:14;1.90;99.90
17423;DHT22;8829;47.932;7.810;2023-01-28T14:23:44;2.00;99.90
17423;DHT22;8829;47.932;7.810;2023-01-28T14:26:22;1.90;99.90
17423;DHT22;8829;47.932;7.810;2023-01-28T14:28:59;1.90;99.90
17423;DHT22;8829;47.932;7.810;2023-01-28T14:31:31;1.80;99.90
17423;DHT22;8829;47.932;7.810;2023-01-28T14:34:05;1.80;99.90
17423;DHT22;8829;47.932;7.810;2023-01-28T14:36:36;1.80;99.90
17423;DHT22;8829;47.932;7.810;2023-01-28T14:39:03;1.80;99.90
17423;DHT22;8829;47.932;7.810;2023-01-28T14:41:30;1.80;99.90
17423;DHT22;8829;47.932;7.810;2023-01-28T14:43:57;1.80;99.90
17423;DHT22;8829;47.932;7.810;2023-01-28T14:46:32;1.90;99.90
17423;DHT22;8829;47.932;7.810;2023-01-28T14:49:14;1.80;99.90
17423;DHT22;8829;47.932;7.810;2023-01-28T14:54:51;1.90;99.90
17423;DHT22;8829;47.932;7.810;2023-01-28T14:57:33;1.80;99.90
17423;DHT22;8829;47.932;7.810;2023-01-28T15:00:13;1.70;99.90
17423;DHT22;8829;47.932;7.810;2023-01-28T15:02:44;1.70;99.90
17423;DHT22;8829;47.932;7.810;2023-01-28T15:05:15;1.70;99.90
17423;DHT22;8829;47.932;7.810;2023-01-28T15:07:43;1.70;99.90
17423;DHT22;8829;47.932;7.810;2023-01-28T15:10:15;1.70;99.90
17423;DHT22;8829;47.932;7.810;2023-01-28T15:12:47;1.70;99.90
17423;DHT22;8829;47.932;7.810;2023-01-28T15:15:19;1.70;99.90
17423;DHT22;8829;47.932;7.810;2023-01-28T15:17:48;1.70;99.90
17423;DHT22;8829;47.932;7.810;2023-01-28T15:20:18;1.60;99.90
17423;DHT22;8829;47.932;7.810;2023-01-28T15:22:46;1.70;99.90
17423;DHT22;8829;47.932;7.810;2023-01-28T15:25:16;1.60;99.90
17423;DHT22;8829;47.932;7.810;2023-01-28T15:27:43;1.60;99.90
17423;DHT22;8829;47.932;7.810;2023-01-28T15:30:22;1.60;99.90
17423;DHT22;8829;47.932;7.810;2023-01-28T15:32:59;1.70;99.90
17423;DHT22;8829;47.932;7.810;2023-01-28T15:35:26;1.70;99.90
17423;DHT22;8829;47.932;7.810;2023-01-28T15:37:53;1.70;99.90
17423;DHT22;8829;47.932;7.810;2023-01-28T15:40:21;1.70;99.90
17423;DHT22;8829;47.932;7.810;2023-01-28T15:42:50;1.70;99.90
17423;DHT22;8829;47.932;7.810;2023-01-28T15:45:20;1.70;99.90
17423;DHT22;8829;47.932;7.810;2023-01-28T15:47:48;1.70;99.90
17423;DHT22;8829;47.932;7.810;2023-01-28T15:50:18;1.70;99.90
17423;DHT22;8829;47.932;7.810;2023-01-28T15:52:46;1.60;99.90
17423;DHT22;8829;47.932;7.810;2023-01-28T15:55:36;1.70;99.90
17423;DHT22;8829;47.932;7.810;2023-01-28T15:58:25;1.70;99.90
17423;DHT22;8829;47.932;7.810;2023-01-28T16:01:02;1.70;99.90
17423;DHT22;8829;47.932;7.810;2023-01-28T16:03:29;1.60;99.90
17423;DHT22;8829;47.932;7.810;2023-01-28T16:06:01;1.60;99.90
17423;DHT22;8829;47.932;7.810;2023-01-28T16:08:34;1.60;99.90
17423;DHT22;8829;47.932;7.810;2023-01-28T16:11:04;1.60;99.90
17423;DHT22;8829;47.932;7.810;2023-01-28T16:13:32;1.60;99.90
17423;DHT22;8829;47.932;7.810;2023-01-28T16:16:00;1.60;99.90
17423;DHT22;8829;47.932;7.810;2023-01-28T16:18:38;1.60;99.90
17423;DHT22;8829;47.932;7.810;2023-01-28T16:21:08;1.60;99.90
17423;DHT22;8829;47.932;7.810;2023-01-28T16:23:37;1.70;99.90
17423;DHT22;8829;47.932;7.810;2023-01-28T16:26:05;1.70;99.90
17423;DHT22;8829;47.932;7.810;2023-01-28T16:28:32;1.70;99.90
17423;DHT22;8829;47.932;7.810;2023-01-28T16:30:59;1.70;99.90
17423;DHT22;8829;47.932;7.810;2023-01-28T16:33:25;1.70;99.90
17423;DHT22;8829;47.932;7.810;2023-01-28T16:35:52;1.70;99.90